sensor_id;sensor_type;location;lat;lon;timestamp;temperature;humidity
29729;DHT22;20055;51.498;11.960;2022-07-23T00:02:08;18.10;99.90
29729;DHT22;20055;51.498;11.960;2022-07-23T00:04:34;18.10;99.90
29729;DHT22;20055;51.498;11.960;2022-07-23T00:07:01;18.10;99.90
29729;DHT22;20055;51.498;11.960;2022-07-23T00:09:27;18.10;99.90
29729;DHT22;20055;51.498;11.960;2022-07-23T00:11:57;18.10;99.90
29729;DHT22;20055;51.498;11.960;2022-07-23T00:14:23;18.10;99.90
29729;DHT22;20055;51.498;11.960;2022-07-23T00:16:49;18.10;99.90
29729;DHT22;20055;51.498;11.960;2022-07-23T00:19:15;18.10;99.90
29729;DHT22;20055;51.498;11.960;2022-07-23T00:21:42;18.10;99.90
29729;DHT22;20055;51.498;11.960;2022-07-23T00:24:08;18.10;99.90
29729;DHT22;20055;51.498;11.960;2022-07-23T00:26:34;18.10;99.90
29729;DHT22;20055;51.498;11.960;2022-07-23T00:29:00;18.10;99.90
29729;DHT22;20055;51.498;11.960;2022-07-23T00:31:27;18.20;99.90
29729;DHT22;20055;51.498;11.960;2022-07-23T00:33:54;18.10;99.90
29729;DHT22;20055;51.498;11.960;2022-07-23T00:36:23;18.10;99.90
29729;DHT22;20055;51.498;11.960;2022-07-23T00:38:50;18.20;99.90
29729;DHT22;20055;51.498;11.960;2022-07-23T00:41:16;18.20;99.90
29729;DHT22;20055;51.498;11.960;2022-07-23T00:43:42;18.30;99.90
29729;DHT22;20055;51.498;11.960;2022-07-23T00:46:09;18.30;99.90
29729;DHT22;20055;51.498;11.960;2022-07-23T00:48:35;18.40;99.90
29729;DHT22;20055;51.498;11.960;2022-07-23T00:51:01;18.30;99.90
29729;DHT22;20055;51.498;11.960;2022-07-23T00:53:28;18.20;99.90
29729;DHT22;20055;51.498;11.960;2022-07-23T00:55:55;18.20;99.90
29729;DHT22;20055;51.498;11.960;2022-07-23T00:58:21;18.10;99.90
29729;DHT22;20055;51.498;11.960;2022-07-23T01:00:48;18.10;99.90
29729;DHT22;20055;51.498;11.960;2022-07-23T01:03:14;18.10;99.90
29729;DHT22;20055;51.498;11.960;2022-07-23T01:05:40;18.20;99.90
29729;DHT22;20055;51.498;11.960;2022-07-23T01:08:06;18.00;99.90
29729;DHT22;20055;51.498;11.960;2022-07-23T01:10:33;18.00;99.90
29729;DHT22;20055;51.498;11.960;2022-07-23T01:13:09;18.00;99.90
29729;DHT22;20055;51.498;11.960;2022-07-23T01:15:38;18.00;99.90
29729;DHT22;20055;51.498;11.960;2022-07-23T01:18:06;17.90;99.90
29729;DHT22;20055;51.498;11.960;2022-07-23T01:20:34;17.90;99.90
29729;DHT22;20055;51.498;11.960;2022-07-23T01:23:01;17.80;99.90
29729;DHT22;20055;51.498;11.960;2022-07-23T01:25:27;17.80;99.90
29729;DHT22;20055;51.498;11.960;2022-07-23T01:27:57;17.70;99.90
29729;DHT22;20055;51.498;11.960;2022-07-23T01:30:23;17.70;99.90
29729;DHT22;20055;51.498;11.960;2022-07-23T01:32:50;17.80;99.90
29729;DHT22;20055;51.498;11.960;2022-07-23T01:35:16;17.80;99.90
29729;DHT22;20055;51.498;11.960;2022-07-23T01:37:43;17.80;99.90
29729;DHT22;20055;51.498;11.960;2022-07-23T01:40:10;17.80;99.90
29729;DHT22;20055;51.498;11.960;2022-07-23T01:42:37;17.80;99.90
29729;DHT22;20055;51.498;11.960;2022-07-23T01:45:04;17.70;99.90
29729;DHT22;20055;51.498;11.960;2022-07-23T01:47:32;17.60;99.90
29729;DHT22;20055;51.498;11.960;2022-07-23T01:49:59;17.60;99.90
29729;DHT22;20055;51.498;11.960;2022-07-23T01:52:43;17.60;99.90
29729;DHT22;20055;51.498;11.960;2022-07-23T01:55:10;17.60;99.90
29729;DHT22;20055;51.498;11.960;2022-07-23T01:57:40;17.50;99.90
29729;DHT22;20055;51.498;11.960;2022-07-23T02:00:07;17.50;99.90
29729;DHT22;20055;51.498;11.960;2022-07-23T02:02:39;17.50;99.90
29729;DHT22;20055;51.498;11.960;2022-07-23T02:05:06;17.40;99.90
29729;DHT22;20055;51.498;11.960;2022-07-23T02:07:32;17.30;99.90
29729;DHT22;20055;51.498;11.960;2022-07-23T02:09:59;17.30;99.90
29729;DHT22;20055;51.498;11.960;2022-07-23T02:12:25;17.20;99.90
29729;DHT22;20055;51.498;11.960;2022-07-23T02:14:51;17.20;99.90
29729;DHT22;20055;51.498;11.960;2022-07-23T02:17:18;17.20;99.90
29729;DHT22;20055;51.498;11.960;2022-07-23T02:19:44;17.30;99.90
29729;DHT22;20055;51.498;11.960;2022-07-23T02:22:10;17.30;99.90
29729;DHT22;20055;51.498;11.960;2022-07-23T02:24:37;17.40;99.90
29729;DHT22;20055;51.498;11.960;2022-07-23T02:27:03;17.50;99.90
29729;DHT22;20055;51.498;11.960;2022-07-23T02:29:29;17.50;99.90
29729;DHT22;20055;51.498;11.960;2022-07-23T02:31:56;17.50;99.90
29729;DHT22;20055;51.498;11.960;2022-07-23T02:34:22;17.50;99.90
29729;DHT22;20055;51.498;11.960;2022-07-23T02:36:49;17.50;99.90
29729;DHT22;20055;51.498;11.960;2022-07-23T02:39:16;17.40;99.90
29729;DHT22;20055;51.498;11.960;2022-07-23T02:41:43;17.40;99.90
29729;DHT22;20055;51.498;11.960;2022-07-23T02:44:11;17.50;99.90
29729;DHT22;20055;51.498;11.960;2022-07-23T02:46:37;17.50;99.90
29729;DHT22;20055;51.498;11.960;2022-07-23T02:49:04;17.60;99.90
29729;DHT22;20055;51.498;11.960;2022-07-23T02:51:31;17.60;99.90
29729;DHT22;20055;51.498;11.960;2022-07-23T02:54:02;17.60;99.90
29729;DHT22;20055;51.498;11.960;2022-07-23T02:56:28;17.70;99.90
29729;DHT22;20055;51.498;11.960;2022-07-23T02:58:56;17.70;99.90
29729;DHT22;20055;51.498;11.960;2022-07-23T03:01:23;17.60;99.90
29729;DHT22;20055;51.498;11.960;2022-07-23T03:03:49;17.70;99.90
29729;DHT22;20055;51.498;11.960;2022-07-23T03:06:15;17.70;99.90
29729;DHT22;20055;51.498;11.960;2022-07-23T03:08:42;17.80;99.90
29729;DHT22;20055;51.498;11.960;2022-07-23T03:11:09;17.80;99.90
29729;DHT22;20055;51.498;11.960;2022-07-23T03:13:39;17.70;99.90
29729;DHT22;20055;51.498;11.960;2022-07-23T03:16:06;17.80;99.90
29729;DHT22;20055;51.498;11.960;2022-07-23T03:18:35;17.70;99.90
29729;DHT22;20055;51.498;11.960;2022-07-23T03:21:02;17.80;99.90
29729;DHT22;20055;51.498;11.960;2022-07-23T03:23:28;17.70;99.90
29729;DHT22;20055;51.498;11.960;2022-07-23T03:25:54;17.60;99.90
29729;DHT22;20055;51.498;11.960;2022-07-23T03:28:22;17.60;99.90
29729;DHT22;20055;51.498;11.960;2022-07-23T03:30:48;17.50;99.90
29729;DHT22;20055;51.498;11.960;2022-07-23T03:33:16;17.50;99.90
29729;DHT22;20055;51.498;11.960;2022-07-23T03:35:44;17.40;99.90
29729;DHT22;20055;51.498;11.960;2022-07-23T03:38:36;17.50;99.90
29729;DHT22;20055;51.498;11.960;2022-07-23T03:41:03;17.40;99.90
29729;DHT22;20055;51.498;11.960;2022-07-23T03:43:30;17.40;99.90
29729;DHT22;20055;51.498;11.960;2022-07-23T03:45:56;17.40;99.90
29729;DHT22;20055;51.498;11.960;2022-07-23T03:48:22;17.40;99.90
29729;DHT22;20055;51.498;11.960;2022-07-23T03:50:49;17.40;99.90
29729;DHT22;20055;51.498;11.960;2022-07-23T03:53:15;17.40;99.90
29729;DHT22;20055;51.498;11.960;2022-07-23T03:55:41;17.30;99.90
29729;DHT22;20055;51.498;11.960;2022-07-23T03:58:08;17.30;99.90
29729;DHT22;20055;51.498;11.960;2022-07-23T04:00:35;17.30;99.90
29729;DHT22;20055;51.498;11.960;2022-07-23T04:03:01;17.40;99.90
29729;DHT22;20055;51.498;11.960;2022-07-23T04:05:28;17.60;99.90
29729;DHT22;20055;51.498;11.960;2022-07-23T04:08:04;17.60;99.90
29729;DHT22;20055;51.498;11.960;2022-07-23T04:10:31;17.70;99.90
29729;DHT22;20055;51.498;11.960;2022-07-23T04:12:57;17.50;99.90
29729;DHT22;20055;51.498;11.960;2022-07-23T04:15:23;17.30;99.90
29729;DHT22;20055;51.498;11.960;2022-07-23T04:17:49;17.10;99.90
29729;DHT22;20055;51.498;11.960;2022-07-23T04:20:18;16.90;99.90
29729;DHT22;20055;51.498;11.960;2022-07-23T04:22:52;16.80;99.90
29729;DHT22;20055;51.498;11.960;2022-07-23T04:25:18;16.80;99.90
29729;DHT22;20055;51.498;11.960;2022-07-23T04:27:45;16.90;99.90
29729;DHT22;20055;51.498;11.960;2022-07-23T04:30:12;16.50;99.90
29729;DHT22;20055;51.498;11.960;2022-07-23T04:32:38;16.40;99.90
29729;DHT22;20055;51.498;11.960;2022-07-23T04:35:12;16.40;99.90
29729;DHT22;20055;51.498;11.960;2022-07-23T04:37:39;16.60;99.90
29729;DHT22;20055;51.498;11.960;2022-07-23T04:40:05;16.90;99.90
29729;DHT22;20055;51.498;11.960;2022-07-23T04:42:32;17.20;99.90
29729;DHT22;20055;51.498;11.960;2022-07-23T04:44:58;17.30;99.90
29729;DHT22;20055;51.498;11.960;2022-07-23T04:47:24;17.30;99.90
29729;DHT22;20055;51.498;11.960;2022-07-23T04:49:51;17.30;99.90
29729;DHT22;20055;51.498;11.960;2022-07-23T04:52:17;17.30;99.90
29729;DHT22;20055;51.498;11.960;2022-07-23T04:54:43;17.40;99.90
29729;DHT22;20055;51.498;11.960;2022-07-23T04:57:10;17.50;99.90
29729;DHT22;20055;51.498;11.960;2022-07-23T04:59:36;17.80;99.90
29729;DHT22;20055;51.498;11.960;2022-07-23T05:02:04;17.90;99.90
29729;DHT22;20055;51.498;11.960;2022-07-23T05:04:31;17.90;99.90
29729;DHT22;20055;51.498;11.960;2022-07-23T05:06:58;18.00;99.90
29729;DHT22;20055;51.498;11.960;2022-07-23T05:09:25;18.10;99.90
29729;DHT22;20055;51.498;11.960;2022-07-23T05:11:51;18.30;99.90
29729;DHT22;20055;51.498;11.960;2022-07-23T05:14:18;18.30;99.90
29729;DHT22;20055;51.498;11.960;2022-07-23T05:16:44;18.30;99.90
29729;DHT22;20055;51.498;11.960;2022-07-23T05:19:17;18.30;99.90
29729;DHT22;20055;51.498;11.960;2022-07-23T05:21:45;18.40;99.90
29729;DHT22;20055;51.498;11.960;2022-07-23T05:24:12;18.50;99.90
29729;DHT22;20055;51.498;11.960;2022-07-23T05:26:38;18.40;99.90
29729;DHT22;20055;51.498;11.960;2022-07-23T05:29:04;18.30;99.90
29729;DHT22;20055;51.498;11.960;2022-07-23T05:31:31;18.30;99.90
29729;DHT22;20055;51.498;11.960;2022-07-23T05:33:57;18.50;99.90
29729;DHT22;20055;51.498;11.960;2022-07-23T05:36:24;18.50;99.90
29729;DHT22;20055;51.498;11.960;2022-07-23T05:38:56;18.60;99.90
29729;DHT22;20055;51.498;11.960;2022-07-23T05:41:22;18.40;99.90
29729;DHT22;20055;51.498;11.960;2022-07-23T05:43:49;18.10;99.90
29729;DHT22;20055;51.498;11.960;2022-07-23T05:46:16;17.90;99.90
29729;DHT22;20055;51.498;11.960;2022-07-23T05:48:46;18.00;99.90
29729;DHT22;20055;51.498;11.960;2022-07-23T05:51:35;17.90;99.90
29729;DHT22;20055;51.498;11.960;2022-07-23T05:54:01;17.90;99.90
29729;DHT22;20055;51.498;11.960;2022-07-23T05:56:33;18.00;99.90
29729;DHT22;20055;51.498;11.960;2022-07-23T05:59:00;17.90;99.90
29729;DHT22;20055;51.498;11.960;2022-07-23T06:01:26;18.00;99.90
29729;DHT22;20055;51.498;11.960;2022-07-23T06:04:09;18.20;99.90
29729;DHT22;20055;51.498;11.960;2022-07-23T06:06:38;18.00;99.90
29729;DHT22;20055;51.498;11.960;2022-07-23T06:09:06;17.80;99.90
29729;DHT22;20055;51.498;11.960;2022-07-23T06:11:35;17.80;99.90
29729;DHT22;20055;51.498;11.960;2022-07-23T06:14:01;17.70;99.90
29729;DHT22;20055;51.498;11.960;2022-07-23T06:16:40;17.50;99.90
29729;DHT22;20055;51.498;11.960;2022-07-23T06:19:07;17.30;99.90
29729;DHT22;20055;51.498;11.960;2022-07-23T06:21:33;17.30;99.90
29729;DHT22;20055;51.498;11.960;2022-07-23T06:23:59;17.50;99.90
29729;DHT22;20055;51.498;11.960;2022-07-23T06:26:26;17.60;99.90
29729;DHT22;20055;51.498;11.960;2022-07-23T06:28:52;17.60;99.90
29729;DHT22;20055;51.498;11.960;2022-07-23T06:31:18;17.70;99.90
29729;DHT22;20055;51.498;11.960;2022-07-23T06:33:45;17.90;99.90
29729;DHT22;20055;51.498;11.960;2022-07-23T06:36:11;18.00;99.90
29729;DHT22;20055;51.498;11.960;2022-07-23T06:38:37;18.10;99.90
29729;DHT22;20055;51.498;11.960;2022-07-23T06:41:03;18.30;99.90
29729;DHT22;20055;51.498;11.960;2022-07-23T06:43:30;18.50;99.90
29729;DHT22;20055;51.498;11.960;2022-07-23T06:45:57;18.50;99.90
29729;DHT22;20055;51.498;11.960;2022-07-23T06:48:24;18.70;99.90
29729;DHT22;20055;51.498;11.960;2022-07-23T06:50:51;18.90;99.90
29729;DHT22;20055;51.498;11.960;2022-07-23T06:53:22;19.00;99.90
29729;DHT22;20055;51.498;11.960;2022-07-23T06:55:49;19.30;99.90
29729;DHT22;20055;51.498;11.960;2022-07-23T06:58:15;19.30;99.90
29729;DHT22;20055;51.498;11.960;2022-07-23T07:00:43;19.40;99.90
29729;DHT22;20055;51.498;11.960;2022-07-23T07:03:10;19.30;99.90
29729;DHT22;20055;51.498;11.960;2022-07-23T07:05:36;19.30;99.90
29729;DHT22;20055;51.498;11.960;2022-07-23T07:08:03;19.10;99.90
29729;DHT22;20055;51.498;11.960;2022-07-23T07:10:29;19.00;99.90
29729;DHT22;20055;51.498;11.960;2022-07-23T07:12:55;19.20;99.90
29729;DHT22;20055;51.498;11.960;2022-07-23T07:15:21;19.10;99.90
29729;DHT22;20055;51.498;11.960;2022-07-23T07:17:48;19.10;99.90
29729;DHT22;20055;51.498;11.960;2022-07-23T07:20:14;19.10;99.90
29729;DHT22;20055;51.498;11.960;2022-07-23T07:22:40;19.20;99.90
29729;DHT22;20055;51.498;11.960;2022-07-23T07:25:07;19.40;99.90
29729;DHT22;20055;51.498;11.960;2022-07-23T07:27:33;19.60;99.90
29729;DHT22;20055;51.498;11.960;2022-07-23T07:30:00;19.80;99.90
29729;DHT22;20055;51.498;11.960;2022-07-23T07:32:27;20.10;99.90
29729;DHT22;20055;51.498;11.960;2022-07-23T07:34:53;20.60;99.90
29729;DHT22;20055;51.498;11.960;2022-07-23T07:37:19;21.00;99.90
29729;DHT22;20055;51.498;11.960;2022-07-23T07:39:46;21.30;99.90
29729;DHT22;20055;51.498;11.960;2022-07-23T07:42:12;21.40;99.90
29729;DHT22;20055;51.498;11.960;2022-07-23T07:44:38;21.30;99.90
29729;DHT22;20055;51.498;11.960;2022-07-23T07:47:05;21.30;99.90
29729;DHT22;20055;51.498;11.960;2022-07-23T07:49:31;21.30;99.90
29729;DHT22;20055;51.498;11.960;2022-07-23T07:51:57;21.30;99.90
29729;DHT22;20055;51.498;11.960;2022-07-23T07:54:23;21.10;99.90
29729;DHT22;20055;51.498;11.960;2022-07-23T07:56:50;20.80;99.90
29729;DHT22;20055;51.498;11.960;2022-07-23T07:59:16;20.20;99.90
29729;DHT22;20055;51.498;11.960;2022-07-23T08:01:43;19.80;99.90
29729;DHT22;20055;51.498;11.960;2022-07-23T08:04:09;19.80;99.90
29729;DHT22;20055;51.498;11.960;2022-07-23T08:06:35;19.70;99.90
29729;DHT22;20055;51.498;11.960;2022-07-23T08:09:01;19.50;99.90
29729;DHT22;20055;51.498;11.960;2022-07-23T08:11:28;19.70;99.90
29729;DHT22;20055;51.498;11.960;2022-07-23T08:13:54;19.90;99.90
29729;DHT22;20055;51.498;11.960;2022-07-23T08:16:20;20.00;99.90
29729;DHT22;20055;51.498;11.960;2022-07-23T08:18:46;20.20;99.90
29729;DHT22;20055;51.498;11.960;2022-07-23T08:21:13;20.20;99.90
29729;DHT22;20055;51.498;11.960;2022-07-23T08:23:39;20.20;99.90
29729;DHT22;20055;51.498;11.960;2022-07-23T08:26:05;20.20;99.90
29729;DHT22;20055;51.498;11.960;2022-07-23T08:28:32;20.20;99.90
29729;DHT22;20055;51.498;11.960;2022-07-23T08:30:59;20.20;99.90
29729;DHT22;20055;51.498;11.960;2022-07-23T08:33:26;20.40;99.90
29729;DHT22;20055;51.498;11.960;2022-07-23T08:35:52;20.50;99.90
29729;DHT22;20055;51.498;11.960;2022-07-23T08:38:21;20.50;99.90
29729;DHT22;20055;51.498;11.960;2022-07-23T08:40:53;20.40;99.90
29729;DHT22;20055;51.498;11.960;2022-07-23T08:43:27;20.40;99.90
29729;DHT22;20055;51.498;11.960;2022-07-23T08:45:55;20.50;99.90
29729;DHT22;20055;51.498;11.960;2022-07-23T08:48:25;20.70;99.90
29729;DHT22;20055;51.498;11.960;2022-07-23T08:50:54;20.70;99.90
29729;DHT22;20055;51.498;11.960;2022-07-23T08:53:22;20.70;99.90
29729;DHT22;20055;51.498;11.960;2022-07-23T08:55:51;20.50;99.90
29729;DHT22;20055;51.498;11.960;2022-07-23T08:58:18;20.40;99.90
29729;DHT22;20055;51.498;11.960;2022-07-23T09:00:46;20.20;99.90
29729;DHT22;20055;51.498;11.960;2022-07-23T09:03:22;20.20;99.90
29729;DHT22;20055;51.498;11.960;2022-07-23T09:05:50;20.30;99.90
29729;DHT22;20055;51.498;11.960;2022-07-23T09:15:50;20.80;99.90
29729;DHT22;20055;51.498;11.960;2022-07-23T09:18:16;20.90;99.90
29729;DHT22;20055;51.498;11.960;2022-07-23T09:20:44;21.20;99.90
29729;DHT22;20055;51.498;11.960;2022-07-23T09:23:10;21.20;99.90
29729;DHT22;20055;51.498;11.960;2022-07-23T09:25:37;21.30;99.90
29729;DHT22;20055;51.498;11.960;2022-07-23T09:28:03;21.40;99.90
29729;DHT22;20055;51.498;11.960;2022-07-23T09:30:31;21.20;99.90
29729;DHT22;20055;51.498;11.960;2022-07-23T09:33:07;21.20;99.90
29729;DHT22;20055;51.498;11.960;2022-07-23T09:38:19;21.10;99.90
29729;DHT22;20055;51.498;11.960;2022-07-23T09:40:47;21.20;99.90
29729;DHT22;20055;51.498;11.960;2022-07-23T09:43:30;21.20;99.90
29729;DHT22;20055;51.498;11.960;2022-07-23T09:46:17;21.20;99.90
29729;DHT22;20055;51.498;11.960;2022-07-23T09:48:44;21.40;99.90
29729;DHT22;20055;51.498;11.960;2022-07-23T09:51:10;21.10;99.90
29729;DHT22;20055;51.498;11.960;2022-07-23T09:53:36;20.80;99.90
29729;DHT22;20055;51.498;11.960;2022-07-23T09:56:02;20.80;99.90
29729;DHT22;20055;51.498;11.960;2022-07-23T09:58:30;20.50;99.90
29729;DHT22;20055;51.498;11.960;2022-07-23T10:00:58;20.50;99.90
29729;DHT22;20055;51.498;11.960;2022-07-23T10:03:24;20.60;99.90
29729;DHT22;20055;51.498;11.960;2022-07-23T10:06:10;20.90;99.90
29729;DHT22;20055;51.498;11.960;2022-07-23T10:09:00;21.20;99.90
29729;DHT22;20055;51.498;11.960;2022-07-23T10:11:52;21.20;99.90
29729;DHT22;20055;51.498;11.960;2022-07-23T10:14:40;21.40;99.90
29729;DHT22;20055;51.498;11.960;2022-07-23T10:17:08;21.00;99.90
29729;DHT22;20055;51.498;11.960;2022-07-23T10:19:35;20.90;99.90
29729;DHT22;20055;51.498;11.960;2022-07-23T10:24:58;21.10;99.90
29729;DHT22;20055;51.498;11.960;2022-07-23T10:30:09;20.70;99.90
29729;DHT22;20055;51.498;11.960;2022-07-23T10:38:07;20.90;99.90
29729;DHT22;20055;51.498;11.960;2022-07-23T10:40:36;21.40;99.90
29729;DHT22;20055;51.498;11.960;2022-07-23T10:43:14;21.70;99.90
29729;DHT22;20055;51.498;11.960;2022-07-23T10:45:42;21.80;99.90
29729;DHT22;20055;51.498;11.960;2022-07-23T10:50:40;22.10;99.90
29729;DHT22;20055;51.498;11.960;2022-07-23T10:58:05;23.40;99.90
29729;DHT22;20055;51.498;11.960;2022-07-23T11:00:33;23.70;99.90
29729;DHT22;20055;51.498;11.960;2022-07-23T11:03:02;24.10;99.90
29729;DHT22;20055;51.498;11.960;2022-07-23T11:05:41;24.10;99.90
29729;DHT22;20055;51.498;11.960;2022-07-23T11:26:54;25.10;99.90
29729;DHT22;20055;51.498;11.960;2022-07-23T11:32:02;25.80;99.90
29729;DHT22;20055;51.498;11.960;2022-07-23T11:37:03;25.80;99.90
29729;DHT22;20055;51.498;11.960;2022-07-23T11:39:31;26.00;99.90
29729;DHT22;20055;51.498;11.960;2022-07-23T11:41:58;25.70;99.90
29729;DHT22;20055;51.498;11.960;2022-07-23T11:47:15;25.00;99.90
29729;DHT22;20055;51.498;11.960;2022-07-23T11:49:57;25.00;99.90
29729;DHT22;20055;51.498;11.960;2022-07-23T11:52:24;24.90;99.90
29729;DHT22;20055;51.498;11.960;2022-07-23T11:54:52;25.10;99.90
29729;DHT22;20055;51.498;11.960;2022-07-23T11:57:20;25.30;99.90
29729;DHT22;20055;51.498;11.960;2022-07-23T11:59:51;25.10;99.90
29729;DHT22;20055;51.498;11.960;2022-07-23T12:02:20;25.30;99.90
29729;DHT22;20055;51.498;11.960;2022-07-23T12:04:50;24.50;99.90
29729;DHT22;20055;51.498;11.960;2022-07-23T12:07:40;24.50;99.90
29729;DHT22;20055;51.498;11.960;2022-07-23T12:10:17;24.60;99.90
29729;DHT22;20055;51.498;11.960;2022-07-23T12:12:51;24.90;99.90
29729;DHT22;20055;51.498;11.960;2022-07-23T12:15:26;25.20;99.90
29729;DHT22;20055;51.498;11.960;2022-07-23T12:17:55;25.50;99.90
29729;DHT22;20055;51.498;11.960;2022-07-23T12:20:26;25.70;99.90
29729;DHT22;20055;51.498;11.960;2022-07-23T12:22:56;25.50;99.90
29729;DHT22;20055;51.498;11.960;2022-07-23T12:25:34;25.50;99.90
29729;DHT22;20055;51.498;11.960;2022-07-23T12:30:55;25.30;99.90
29729;DHT22;20055;51.498;11.960;2022-07-23T12:33:29;25.20;99.90
29729;DHT22;20055;51.498;11.960;2022-07-23T12:36:01;25.30;99.90
29729;DHT22;20055;51.498;11.960;2022-07-23T12:38:41;25.50;99.90
29729;DHT22;20055;51.498;11.960;2022-07-23T12:41:07;25.80;99.90
29729;DHT22;20055;51.498;11.960;2022-07-23T12:43:38;25.90;99.90
29729;DHT22;20055;51.498;11.960;2022-07-23T12:46:08;26.10;99.90
29729;DHT22;20055;51.498;11.960;2022-07-23T12:51:25;26.20;99.90
29729;DHT22;20055;51.498;11.960;2022-07-23T12:54:08;26.50;99.90
29729;DHT22;20055;51.498;11.960;2022-07-23T12:56:37;27.00;99.90
29729;DHT22;20055;51.498;11.960;2022-07-23T13:01:32;27.20;99.90
29729;DHT22;20055;51.498;11.960;2022-07-23T13:04:08;27.50;99.90
29729;DHT22;20055;51.498;11.960;2022-07-23T13:06:50;27.40;99.90
29729;DHT22;20055;51.498;11.960;2022-07-23T13:09:22;27.70;99.90
29729;DHT22;20055;51.498;11.960;2022-07-23T13:11:50;27.90;99.90
29729;DHT22;20055;51.498;11.960;2022-07-23T13:14:17;27.90;99.90
29729;DHT22;20055;51.498;11.960;2022-07-23T13:16:45;27.60;99.90
29729;DHT22;20055;51.498;11.960;2022-07-23T13:19:11;27.60;99.90
29729;DHT22;20055;51.498;11.960;2022-07-23T13:21:39;27.40;99.90
29729;DHT22;20055;51.498;11.960;2022-07-23T13:24:05;27.30;99.90
29729;DHT22;20055;51.498;11.960;2022-07-23T13:26:32;27.30;99.90
29729;DHT22;20055;51.498;11.960;2022-07-23T13:28:58;27.00;99.90
29729;DHT22;20055;51.498;11.960;2022-07-23T13:31:24;26.80;99.90
29729;DHT22;20055;51.498;11.960;2022-07-23T13:33:51;26.30;99.90
29729;DHT22;20055;51.498;11.960;2022-07-23T13:36:17;26.10;99.90
29729;DHT22;20055;51.498;11.960;2022-07-23T13:38:43;25.90;99.90
29729;DHT22;20055;51.498;11.960;2022-07-23T13:41:09;25.50;99.90
29729;DHT22;20055;51.498;11.960;2022-07-23T13:43:35;25.30;99.90
29729;DHT22;20055;51.498;11.960;2022-07-23T13:46:02;25.50;99.90
29729;DHT22;20055;51.498;11.960;2022-07-23T13:48:28;25.50;99.90
29729;DHT22;20055;51.498;11.960;2022-07-23T13:50:55;25.50;99.90
29729;DHT22;20055;51.498;11.960;2022-07-23T13:53:23;25.60;99.90
29729;DHT22;20055;51.498;11.960;2022-07-23T13:55:50;25.70;99.90
29729;DHT22;20055;51.498;11.960;2022-07-23T13:58:17;26.00;99.90
29729;DHT22;20055;51.498;11.960;2022-07-23T14:00:50;25.90;99.90
29729;DHT22;20055;51.498;11.960;2022-07-23T14:03:18;26.10;99.90
29729;DHT22;20055;51.498;11.960;2022-07-23T14:05:44;26.10;99.90
29729;DHT22;20055;51.498;11.960;2022-07-23T14:08:11;26.00;99.90
29729;DHT22;20055;51.498;11.960;2022-07-23T14:10:37;25.90;99.90
29729;DHT22;20055;51.498;11.960;2022-07-23T14:13:04;25.50;99.90
29729;DHT22;20055;51.498;11.960;2022-07-23T14:15:31;25.50;99.90
29729;DHT22;20055;51.498;11.960;2022-07-23T14:17:58;25.50;99.90
29729;DHT22;20055;51.498;11.960;2022-07-23T14:20:24;25.40;99.90
29729;DHT22;20055;51.498;11.960;2022-07-23T14:22:51;25.50;99.90
29729;DHT22;20055;51.498;11.960;2022-07-23T14:25:18;25.60;99.90
29729;DHT22;20055;51.498;11.960;2022-07-23T14:27:44;25.50;99.90
29729;DHT22;20055;51.498;11.960;2022-07-23T14:30:11;25.50;99.90
29729;DHT22;20055;51.498;11.960;2022-07-23T14:32:38;25.50;99.90
29729;DHT22;20055;51.498;11.960;2022-07-23T14:35:05;25.50;99.90
29729;DHT22;20055;51.498;11.960;2022-07-23T14:37:32;25.70;99.90
29729;DHT22;20055;51.498;11.960;2022-07-23T14:39:58;25.90;99.90
29729;DHT22;20055;51.498;11.960;2022-07-23T14:42:25;25.90;99.90
29729;DHT22;20055;51.498;11.960;2022-07-23T14:44:52;25.80;99.90
29729;DHT22;20055;51.498;11.960;2022-07-23T14:47:18;25.80;99.90
29729;DHT22;20055;51.498;11.960;2022-07-23T14:49:44;25.80;99.90
29729;DHT22;20055;51.498;11.960;2022-07-23T14:52:10;25.70;99.90
29729;DHT22;20055;51.498;11.960;2022-07-23T14:54:36;25.80;99.90
29729;DHT22;20055;51.498;11.960;2022-07-23T14:57:03;25.40;99.90
29729;DHT22;20055;51.498;11.960;2022-07-23T14:59:30;25.40;99.90
29729;DHT22;20055;51.498;11.960;2022-07-23T15:01:57;25.40;99.90
29729;DHT22;20055;51.498;11.960;2022-07-23T15:04:24;25.50;99.90
29729;DHT22;20055;51.498;11.960;2022-07-23T15:06:51;25.70;99.90
29729;DHT22;20055;51.498;11.960;2022-07-23T15:09:18;26.00;99.90
29729;DHT22;20055;51.498;11.960;2022-07-23T15:11:44;25.70;99.90
29729;DHT22;20055;51.498;11.960;2022-07-23T15:14:10;25.50;99.90
29729;DHT22;20055;51.498;11.960;2022-07-23T15:16:37;25.30;99.90
29729;DHT22;20055;51.498;11.960;2022-07-23T15:19:04;25.30;99.90
29729;DHT22;20055;51.498;11.960;2022-07-23T15:21:30;25.50;99.90
29729;DHT22;20055;51.498;11.960;2022-07-23T15:23:57;25.70;99.90
29729;DHT22;20055;51.498;11.960;2022-07-23T15:26:27;25.80;99.90
29729;DHT22;20055;51.498;11.960;2022-07-23T15:28:54;25.50;99.70
29729;DHT22;20055;51.498;11.960;2022-07-23T15:31:21;25.70;99.60
29729;DHT22;20055;51.498;11.960;2022-07-23T15:33:47;26.00;99.90
29729;DHT22;20055;51.498;11.960;2022-07-23T15:36:13;26.30;99.00
29729;DHT22;20055;51.498;11.960;2022-07-23T15:38:40;26.10;99.50
29729;DHT22;20055;51.498;11.960;2022-07-23T15:41:06;26.20;99.10
29729;DHT22;20055;51.498;11.960;2022-07-23T15:43:32;26.40;98.00
29729;DHT22;20055;51.498;11.960;2022-07-23T15:45:58;26.70;98.20
29729;DHT22;20055;51.498;11.960;2022-07-23T15:48:25;26.60;97.00
29729;DHT22;20055;51.498;11.960;2022-07-23T15:50:51;26.30;97.40
29729;DHT22;20055;51.498;11.960;2022-07-23T15:53:18;26.40;97.40
29729;DHT22;20055;51.498;11.960;2022-07-23T15:55:45;26.30;98.70
29729;DHT22;20055;51.498;11.960;2022-07-23T15:58:12;26.80;97.50
29729;DHT22;20055;51.498;11.960;2022-07-23T16:00:38;26.40;98.10
29729;DHT22;20055;51.498;11.960;2022-07-23T16:03:04;26.40;97.80
29729;DHT22;20055;51.498;11.960;2022-07-23T16:05:31;26.20;98.40
29729;DHT22;20055;51.498;11.960;2022-07-23T16:08:01;25.90;97.80
29729;DHT22;20055;51.498;11.960;2022-07-23T16:10:28;25.90;98.20
29729;DHT22;20055;51.498;11.960;2022-07-23T16:12:54;26.20;96.80
29729;DHT22;20055;51.498;11.960;2022-07-23T16:15:21;26.10;97.10
29729;DHT22;20055;51.498;11.960;2022-07-23T16:17:47;26.60;97.10
29729;DHT22;20055;51.498;11.960;2022-07-23T16:20:13;27.50;95.50
29729;DHT22;20055;51.498;11.960;2022-07-23T16:22:40;27.80;94.20
29729;DHT22;20055;51.498;11.960;2022-07-23T16:25:07;27.90;92.60